createdAt,value
2022-08-17T00:01:30.269Z,2.47
2022-08-17T00:04:11.738Z,1.75
2022-08-17T00:06:38.499Z,2.22
2022-08-17T00:09:05.667Z,2.22
2022-08-17T00:11:38.474Z,2.00
2022-08-17T00:14:09.355Z,2.00
2022-08-17T00:16:55.620Z,1.85
2022-08-17T00:19:25.098Z,2.22
2022-08-17T00:22:30.877Z,1.80
2022-08-17T00:24:43.951Z,2.03
2022-08-17T00:27:10.485Z,2.17
2022-08-17T00:29:37.035Z,1.83
2022-08-17T00:33:12.481Z,2.20
2022-08-17T00:34:50.505Z,2.30
2022-08-17T00:37:16.977Z,2.28
2022-08-17T00:39:43.763Z,1.90
2022-08-17T00:42:15.188Z,2.58
2022-08-17T00:44:41.685Z,1.50
2022-08-17T00:47:08.257Z,1.63
2022-08-17T00:49:34.710Z,1.70
2022-08-17T00:52:11.708Z,1.45
2022-08-17T00:54:42.072Z,2.13
2022-08-17T00:57:12.928Z,2.67
2022-08-17T00:59:47.093Z,1.80
2022-08-17T01:02:29.456Z,2.75
2022-08-17T01:05:00.918Z,2.58
2022-08-17T01:07:37.894Z,1.80
2022-08-17T01:10:06.647Z,3.00
2022-08-17T01:12:35.706Z,1.98
2022-08-17T01:15:02.418Z,2.38
2022-08-17T01:17:28.904Z,2.50
2022-08-17T01:20:00.106Z,2.90
2022-08-17T01:22:26.859Z,2.60
2022-08-17T01:25:02.161Z,2.65
2022-08-17T01:27:31.801Z,2.58
2022-08-17T01:30:06.883Z,2.30
2022-08-17T01:32:56.179Z,2.17
2022-08-17T01:35:22.813Z,2.28
2022-08-17T01:37:53.286Z,2.47
2022-08-17T01:40:30.027Z,2.10
2022-08-17T01:43:00.404Z,2.72
2022-08-17T01:45:35.555Z,3.15
2022-08-17T01:48:02.103Z,3.05
2022-08-17T01:50:37.381Z,3.08
2022-08-17T01:53:12.032Z,2.88
2022-08-17T01:55:43.281Z,3.03
2022-08-17T01:58:09.939Z,2.53
2022-08-17T02:00:59.380Z,3.20
2022-08-17T02:03:28.446Z,2.90
2022-08-17T02:05:55.183Z,3.35
2022-08-17T02:08:39.329Z,3.42
2022-08-17T02:11:20.378Z,2.78
2022-08-17T02:13:57.900Z,3.25
2022-08-17T02:16:36.909Z,3.38
2022-08-17T02:19:10.462Z,2.65
2022-08-17T02:21:38.196Z,3.28
2022-08-17T02:24:12.916Z,3.60
2022-08-17T02:26:41.988Z,3.22
2022-08-17T02:29:08.589Z,3.25
2022-08-17T02:31:35.592Z,3.33
2022-08-17T02:34:04.516Z,3.40
2022-08-17T02:36:36.428Z,3.17
2022-08-17T02:39:05.632Z,2.72
2022-08-17T02:41:36.933Z,2.95
2022-08-17T02:44:03.854Z,2.85
2022-08-17T02:46:31.150Z,2.35
2022-08-17T02:48:59.589Z,2.95
2022-08-17T02:51:28.908Z,2.83
2022-08-17T02:54:35.606Z,3.80
2022-08-17T02:56:42.244Z,3.60
2022-08-17T02:59:11.200Z,2.65
2022-08-17T03:01:42.366Z,3.47
2022-08-17T03:04:08.991Z,4.43
2022-08-17T03:06:35.509Z,3.30
2022-08-17T03:09:03.915Z,4.25
2022-08-17T03:11:30.494Z,4.13
2022-08-17T03:14:00.788Z,3.05
2022-08-17T03:16:27.279Z,3.92
2022-08-17T03:18:55.237Z,3.88
2022-08-17T03:21:21.760Z,3.83
2022-08-17T03:23:54.289Z,2.70
2022-08-17T03:26:22.716Z,3.10
2022-08-17T03:28:49.282Z,2.90
2022-08-17T03:31:15.899Z,2.88
2022-08-17T03:33:44.926Z,3.75
2022-08-17T03:36:11.932Z,3.20
2022-08-17T03:38:39.040Z,2.50
2022-08-17T03:41:07.769Z,3.30
2022-08-17T03:43:34.747Z,3.63
2022-08-17T03:46:34.167Z,3.55
2022-08-17T03:49:24.974Z,2.00
2022-08-17T03:52:11.951Z,2.83
2022-08-17T03:55:00.127Z,3.42
2022-08-17T03:57:26.921Z,2.40
2022-08-17T03:59:56.808Z,2.70
2022-08-17T04:02:32.623Z,3.00
2022-08-17T04:04:59.590Z,3.00
2022-08-17T04:07:28.458Z,3.63
2022-08-17T04:09:59.344Z,3.65
2022-08-17T04:12:30.864Z,4.00
2022-08-17T04:14:57.989Z,4.55
2022-08-17T04:17:28.071Z,4.00
2022-08-17T04:19:55.318Z,3.40
2022-08-17T04:22:32.708Z,3.05
2022-08-17T04:25:15.365Z,4.57
2022-08-17T04:27:41.969Z,4.35
2022-08-17T04:30:12.160Z,4.57
2022-08-17T04:33:06.283Z,3.90
2022-08-17T04:35:39.466Z,3.50
2022-08-17T04:38:07.299Z,4.32
2022-08-17T04:40:52.425Z,4.53
2022-08-17T04:43:23.719Z,3.20
2022-08-17T04:46:04.618Z,3.40
2022-08-17T04:48:37.593Z,4.15
2022-08-17T04:51:20.187Z,4.38
2022-08-17T04:53:54.395Z,2.53
2022-08-17T04:56:22.205Z,2.55
2022-08-17T04:58:51.404Z,3.65
2022-08-17T05:01:23.739Z,2.80
2022-08-17T05:03:56.223Z,3.00
2022-08-17T05:08:49.612Z,4.35
2022-08-17T05:11:16.188Z,3.95
2022-08-17T05:13:42.807Z,4.25
2022-08-17T05:16:09.462Z,4.38
2022-08-17T05:18:38.693Z,4.50
2022-08-17T05:21:06.671Z,3.97
2022-08-17T05:23:42.608Z,4.10
2022-08-17T05:26:15.226Z,4.00
2022-08-17T05:28:53.817Z,4.22
2022-08-17T05:31:20.813Z,4.00
2022-08-17T05:33:48.442Z,4.90
2022-08-17T05:36:42.545Z,4.65
2022-08-17T05:39:05.145Z,5.13
2022-08-17T05:41:34.633Z,5.10
2022-08-17T05:44:01.146Z,4.03
2022-08-17T05:46:36.424Z,4.20
2022-08-17T05:49:07.830Z,5.95
2022-08-17T05:52:07.917Z,3.88
2022-08-17T05:55:00.138Z,6.32
2022-08-17T05:57:47.555Z,6.07
2022-08-17T06:00:53.202Z,5.50
2022-08-17T06:03:46.476Z,5.70
2022-08-17T06:06:16.696Z,5.65
2022-08-17T06:09:05.052Z,4.30
2022-08-17T06:11:35.335Z,6.22
2022-08-17T06:14:19.900Z,5.45
2022-08-17T06:16:50.727Z,7.00
2022-08-17T06:19:19.448Z,7.15
2022-08-17T06:21:51.523Z,6.93
2022-08-17T06:26:52.492Z,6.43
2022-08-17T06:29:51.184Z,6.85
2022-08-17T06:32:23.140Z,6.05
2022-08-17T06:37:44.451Z,6.50
2022-08-17T06:40:48.559Z,6.07
2022-08-17T06:43:50.984Z,4.57
2022-08-17T06:46:29.400Z,5.22
2022-08-17T06:49:00.959Z,5.40
2022-08-17T06:51:36.298Z,5.15
2022-08-17T06:54:18.167Z,4.45
2022-08-17T06:56:59.802Z,5.47
2022-08-17T06:59:54.885Z,4.28
2022-08-17T07:02:52.742Z,5.18
2022-08-17T07:05:25.063Z,5.32
2022-08-17T07:08:03.078Z,5.63
2022-08-17T07:10:36.386Z,5.38
2022-08-17T07:13:38.195Z,4.57
2022-08-17T07:16:16.759Z,3.33
2022-08-17T07:18:46.145Z,3.70
2022-08-17T07:21:25.821Z,3.85
2022-08-17T07:24:04.057Z,3.15
2022-08-17T07:26:30.602Z,4.15
2022-08-17T07:29:03.890Z,3.80
2022-08-17T07:31:33.421Z,4.15
2022-08-17T07:34:14.386Z,4.18
2022-08-17T07:36:42.174Z,3.05
2022-08-17T07:39:10.074Z,3.83
2022-08-17T07:41:53.053Z,3.28
2022-08-17T07:44:25.428Z,3.58
2022-08-17T07:47:11.862Z,3.88
2022-08-17T07:49:42.855Z,2.97
2022-08-17T07:52:51.167Z,4.00
2022-08-17T07:55:29.935Z,3.53
2022-08-17T07:57:58.676Z,2.92
2022-08-17T08:00:32.290Z,3.65
2022-08-17T08:03:22.117Z,3.17
2022-08-17T08:05:57.615Z,5.57
2022-08-17T08:08:35.763Z,3.85
2022-08-17T08:13:42.279Z,3.80
2022-08-17T08:16:29.589Z,4.20
2022-08-17T08:19:00.878Z,3.90
2022-08-17T08:21:41.809Z,4.35
2022-08-17T08:24:20.932Z,3.45
2022-08-17T08:27:02.328Z,4.15
2022-08-17T08:29:53.248Z,4.28
2022-08-17T08:32:54.005Z,3.58
2022-08-17T08:35:38.063Z,4.15
2022-08-17T08:38:16.407Z,3.22
2022-08-17T08:40:48.930Z,2.83
2022-08-17T08:43:31.165Z,2.50
2022-08-17T08:46:19.624Z,3.20
2022-08-17T08:48:57.819Z,2.80
2022-08-17T08:51:39.310Z,2.10
2022-08-17T08:54:31.508Z,2.70
2022-08-17T09:00:13.286Z,1.92
2022-08-17T09:02:45.782Z,1.95
2022-08-17T09:05:29.325Z,2.13
2022-08-17T09:08:02.618Z,2.20
2022-08-17T09:10:47.728Z,2.50
2022-08-17T09:13:54.142Z,2.03
2022-08-17T09:16:57.417Z,1.90
2022-08-17T09:19:43.948Z,2.05
2022-08-17T09:22:39.675Z,1.67
2022-08-17T09:25:22.241Z,1.80
2022-08-17T09:28:05.695Z,1.67
2022-08-17T09:30:41.552Z,1.90
2022-08-17T09:33:24.063Z,1.83
2022-08-17T09:36:10.087Z,1.60
2022-08-17T09:39:06.968Z,1.20
2022-08-17T09:44:26.495Z,1.58
2022-08-17T09:47:07.863Z,1.63
2022-08-17T09:49:42.831Z,1.60
2022-08-17T09:52:24.921Z,1.40
2022-08-17T09:54:53.783Z,1.63
2022-08-17T09:57:30.327Z,1.52
2022-08-17T10:00:11.266Z,1.50
2022-08-17T10:03:11.930Z,2.22
2022-08-17T10:06:22.235Z,1.65
2022-08-17T10:09:08.335Z,1.45
2022-08-17T10:12:11.829Z,1.30
2022-08-17T10:14:53.585Z,1.42
2022-08-17T10:17:25.043Z,1.40
2022-08-17T10:20:01.321Z,1.73
2022-08-17T10:22:56.804Z,1.20
2022-08-17T10:25:54.597Z,1.70
2022-08-17T10:28:30.009Z,1.40
2022-08-17T10:34:28.689Z,1.38
2022-08-17T10:37:02.777Z,1.55
2022-08-17T10:39:52.708Z,1.65
2022-08-17T10:42:33.056Z,1.95
2022-08-17T10:45:07.811Z,1.80
2022-08-17T10:48:06.239Z,1.30
2022-08-17T10:50:46.229Z,1.52
2022-08-17T10:53:32.633Z,1.90
2022-08-17T10:56:14.267Z,1.80
2022-08-17T10:58:54.272Z,1.50
2022-08-17T11:01:43.384Z,1.67
2022-08-17T11:04:21.142Z,1.10
2022-08-17T11:07:03.008Z,2.15
2022-08-17T11:09:38.560Z,1.60
2022-08-17T11:12:42.721Z,2.10
2022-08-17T11:15:19.599Z,1.65
2022-08-17T11:18:02.206Z,1.38
2022-08-17T11:20:41.205Z,2.05
2022-08-17T11:23:27.112Z,1.48
2022-08-17T11:25:58.392Z,1.95
2022-08-17T11:28:28.097Z,1.60
2022-08-17T11:31:10.639Z,1.73
2022-08-17T11:33:55.525Z,2.00
2022-08-17T11:36:39.715Z,1.80
2022-08-17T11:39:25.837Z,1.58
2022-08-17T11:42:05.804Z,1.90
2022-08-17T11:44:39.137Z,1.63
2022-08-17T11:47:49.515Z,1.92
2022-08-17T11:51:26.636Z,1.83
2022-08-17T11:54:08.641Z,1.40
2022-08-17T11:56:46.698Z,2.90
2022-08-17T11:59:41.627Z,2.85
2022-08-17T12:02:33.529Z,2.10
2022-08-17T12:05:19.352Z,2.10
2022-08-17T12:07:52.332Z,2.33
2022-08-17T12:10:22.225Z,2.97
2022-08-17T12:12:50.333Z,2.38
2022-08-17T12:15:19.466Z,2.10
2022-08-17T12:17:54.310Z,2.40
2022-08-17T12:20:33.024Z,2.20
2022-08-17T12:23:11.664Z,2.42
2022-08-17T12:25:43.222Z,2.58
2022-08-17T12:28:29.624Z,2.63
2022-08-17T12:31:24.712Z,2.30
2022-08-17T12:33:51.882Z,2.53
2022-08-17T12:36:32.544Z,2.53
2022-08-17T12:39:13.682Z,2.20
2022-08-17T12:41:47.021Z,3.40
2022-08-17T12:44:25.929Z,2.30
2022-08-17T12:46:52.545Z,2.50
2022-08-17T12:49:52.680Z,2.83
2022-08-17T12:52:27.554Z,4.28
2022-08-17T12:55:06.943Z,2.95
2022-08-17T12:57:39.253Z,2.60
2022-08-17T13:00:24.982Z,3.40
2022-08-17T13:03:05.787Z,2.83
2022-08-17T13:05:36.189Z,2.70
2022-08-17T13:08:16.181Z,3.00
2022-08-17T13:10:43.841Z,2.28
2022-08-17T13:13:20.722Z,2.67
2022-08-17T13:15:56.130Z,2.70
2022-08-17T13:18:38.270Z,2.65
2022-08-17T13:21:06.835Z,2.40
2022-08-17T13:23:33.369Z,2.30
2022-08-17T13:26:09.387Z,2.55
2022-08-17T13:28:37.469Z,2.17
2022-08-17T13:31:33.240Z,2.28
2022-08-17T13:34:26.847Z,2.38
2022-08-17T13:37:26.930Z,3.05
2022-08-17T13:39:55.339Z,2.38
2022-08-17T13:42:51.648Z,3.13
2022-08-17T13:45:35.285Z,2.03
2022-08-17T13:48:13.782Z,2.40
2022-08-17T13:51:17.733Z,2.45
2022-08-17T13:53:44.132Z,2.47
2022-08-17T13:56:37.224Z,2.50
2022-08-17T13:59:08.677Z,2.80
2022-08-17T14:01:45.868Z,2.58
2022-08-17T14:04:18.772Z,2.42
2022-08-17T14:06:54.708Z,2.50
2022-08-17T14:09:34.873Z,2.50
2022-08-17T14:12:06.485Z,2.30
2022-08-17T14:14:32.994Z,2.58
2022-08-17T14:16:59.501Z,2.40
2022-08-17T14:19:26.475Z,3.10
2022-08-17T14:21:56.498Z,2.30
2022-08-17T14:24:24.400Z,2.30
2022-08-17T14:26:52.888Z,3.20
2022-08-17T14:29:21.366Z,2.33
2022-08-17T14:31:54.163Z,2.40
2022-08-17T14:34:22.201Z,2.65
2022-08-17T14:36:49.049Z,2.50
2022-08-17T14:39:16.789Z,2.85
2022-08-17T14:41:43.676Z,3.22
2022-08-17T14:44:13.381Z,2.67
2022-08-17T14:46:41.507Z,2.38
2022-08-17T14:49:10.859Z,2.80
2022-08-17T14:51:39.721Z,2.92
2022-08-17T14:54:10.490Z,2.83
2022-08-17T14:56:38.569Z,3.58
2022-08-17T14:59:05.060Z,3.25
2022-08-17T15:01:31.694Z,2.30
2022-08-17T15:03:58.206Z,2.60
2022-08-17T15:06:24.802Z,2.88
2022-08-17T15:08:51.363Z,2.65
2022-08-17T15:11:17.886Z,2.33
2022-08-17T15:13:52.884Z,2.40
2022-08-17T15:16:20.491Z,2.90
2022-08-17T15:18:47.006Z,1.88
2022-08-17T15:21:14.822Z,2.67
2022-08-17T15:23:41.326Z,1.80
2022-08-17T15:26:11.144Z,2.30
2022-08-17T15:28:37.806Z,2.22
2022-08-17T15:31:06.090Z,2.75
2022-08-17T15:33:33.131Z,2.40
2022-08-17T15:36:01.673Z,2.30
2022-08-17T15:38:28.966Z,2.72
2022-08-17T15:40:57.602Z,2.95
2022-08-17T15:43:28.139Z,2.42
2022-08-17T15:46:12.295Z,2.70
2022-08-17T15:48:43.290Z,2.38
2022-08-17T15:51:15.952Z,3.28
2022-08-17T15:53:49.386Z,2.17
2022-08-17T15:56:16.517Z,2.42
2022-08-17T15:58:44.287Z,2.65
2022-08-17T16:01:14.834Z,3.13
2022-08-17T16:04:04.301Z,3.17
2022-08-17T16:06:32.983Z,2.30
2022-08-17T16:09:00.390Z,2.40
2022-08-17T16:11:27.024Z,2.15
2022-08-17T16:13:54.678Z,2.50
2022-08-17T16:16:23.500Z,2.80
2022-08-17T16:18:53.525Z,2.50
2022-08-17T16:21:26.053Z,2.42
2022-08-17T16:24:04.606Z,3.35
2022-08-17T16:26:32.882Z,2.70
2022-08-17T16:29:01.305Z,1.98
2022-08-17T16:31:27.908Z,2.63
2022-08-17T16:34:15.997Z,2.05
2022-08-17T16:36:41.564Z,2.75
2022-08-17T16:39:20.288Z,3.60
2022-08-17T16:41:46.803Z,3.97
2022-08-17T16:44:15.921Z,3.25
2022-08-17T16:46:45.330Z,2.63
2022-08-17T16:49:29.623Z,2.85
2022-08-17T16:52:01.620Z,3.45
2022-08-17T16:54:28.093Z,3.17
2022-08-17T16:56:54.595Z,2.17
2022-08-17T16:59:30.991Z,3.35
2022-08-17T17:02:04.754Z,2.50
2022-08-17T17:04:35.108Z,2.30
2022-08-17T17:07:33.727Z,2.63
2022-08-17T17:10:09.611Z,2.67
2022-08-17T17:13:03.597Z,2.40
2022-08-17T17:15:28.802Z,2.65
2022-08-17T17:21:01.144Z,3.00
2022-08-17T17:23:33.227Z,2.75
2022-08-17T17:26:15.484Z,2.60
2022-08-17T17:28:59.112Z,2.83
2022-08-17T17:31:29.381Z,2.78
2022-08-17T17:34:00.313Z,2.65
2022-08-17T17:36:40.332Z,3.15
2022-08-17T17:39:12.284Z,2.42
2022-08-17T17:41:54.474Z,2.85
2022-08-17T17:44:38.599Z,3.55
2022-08-17T17:47:05.572Z,3.78
2022-08-17T17:49:44.246Z,3.47
2022-08-17T17:52:18.557Z,2.90
2022-08-17T17:55:01.079Z,2.65
2022-08-17T17:57:49.343Z,2.78
2022-08-17T18:00:52.238Z,3.38
2022-08-17T18:03:24.665Z,2.67
2022-08-17T18:06:03.194Z,4.00
2022-08-17T18:08:49.033Z,2.70
2022-08-17T18:11:24.544Z,3.50
2022-08-17T18:14:07.600Z,3.22
2022-08-17T18:16:35.681Z,2.85
2022-08-17T18:19:02.141Z,2.40
2022-08-17T18:21:44.124Z,2.30
2022-08-17T18:24:27.964Z,2.28
2022-08-17T18:26:55.808Z,1.88
2022-08-17T18:29:35.814Z,1.67
2022-08-17T18:32:43.617Z,1.92
2022-08-17T18:35:10.226Z,1.67
2022-08-17T18:37:42.946Z,1.90
2022-08-17T18:40:21.537Z,1.40
2022-08-17T18:43:06.695Z,1.83
2022-08-17T18:45:45.825Z,1.83
2022-08-17T18:48:18.327Z,2.00
2022-08-17T18:50:44.923Z,1.65
2022-08-17T18:53:34.380Z,2.03
2022-08-17T18:56:23.756Z,1.75
2022-08-17T18:59:11.942Z,2.22
2022-08-17T19:02:02.730Z,1.95
2022-08-17T19:04:36.841Z,2.45
2022-08-17T19:07:11.944Z,2.50
2022-08-17T19:09:43.992Z,2.38
2022-08-17T19:12:17.774Z,2.10
2022-08-17T19:14:47.147Z,2.67
2022-08-17T19:17:24.194Z,2.10
2022-08-17T19:20:09.111Z,2.08
2022-08-17T19:23:03.580Z,2.17
2022-08-17T19:25:38.209Z,2.40
2022-08-17T19:28:21.591Z,1.88
2022-08-17T19:30:51.276Z,2.03
2022-08-17T19:33:23.117Z,1.60
2022-08-17T19:35:59.424Z,2.00
2022-08-17T19:38:41.083Z,2.13
2022-08-17T19:41:16.841Z,2.08
2022-08-17T19:43:53.591Z,1.92
2022-08-17T19:47:00.870Z,2.40
2022-08-17T19:49:52.517Z,2.80
2022-08-17T19:52:42.119Z,1.98
2022-08-17T19:55:23.279Z,1.90
2022-08-17T19:58:01.011Z,2.05
2022-08-17T20:00:30.178Z,2.15
2022-08-17T20:03:16.728Z,2.70
2022-08-17T20:06:12.021Z,1.92
2022-08-17T20:09:09.503Z,2.50
2022-08-17T20:11:45.456Z,1.65
2022-08-17T20:14:16.634Z,2.67
2022-08-17T20:16:43.521Z,2.20
2022-08-17T20:19:36.264Z,2.03
2022-08-17T20:22:09.803Z,2.70
2022-08-17T20:24:53.709Z,2.60
2022-08-17T20:27:32.132Z,2.00
2022-08-17T20:30:04.623Z,2.65
2022-08-17T20:32:37.550Z,2.38
2022-08-17T20:35:17.668Z,2.13
2022-08-17T20:37:53.321Z,1.95
2022-08-17T20:40:23.754Z,1.88
2022-08-17T20:42:50.252Z,2.03
2022-08-17T20:45:26.252Z,1.60
2022-08-17T20:48:21.615Z,1.88
2022-08-17T20:50:50.622Z,1.70
2022-08-17T20:54:02.353Z,1.48
2022-08-17T20:56:43.763Z,2.00
2022-08-17T20:59:26.058Z,1.60
2022-08-17T21:02:17.463Z,1.60
2022-08-17T21:04:50.825Z,1.50
2022-08-17T21:07:44.906Z,1.42
2022-08-17T21:10:17.787Z,1.63
2022-08-17T21:12:53.006Z,1.35
2022-08-17T21:15:31.778Z,1.92
2022-08-17T21:18:08.743Z,1.50
2022-08-17T21:20:45.786Z,1.30
2022-08-17T21:23:16.226Z,2.30
2022-08-17T21:25:49.201Z,1.90
2022-08-17T21:28:21.781Z,2.03
2022-08-17T21:30:52.479Z,1.70
2022-08-17T21:33:33.590Z,2.15
2022-08-17T21:36:00.039Z,2.10
2022-08-17T21:38:47.021Z,2.85
2022-08-17T21:41:34.168Z,2.30
2022-08-17T21:44:11.492Z,1.92
2022-08-17T21:46:42.882Z,2.60
2022-08-17T21:49:16.654Z,2.47
2022-08-17T21:51:54.397Z,1.88
2022-08-17T21:54:35.686Z,1.65
2022-08-17T21:57:04.587Z,2.15
2022-08-17T21:59:37.861Z,3.08
2022-08-17T22:02:09.758Z,2.17
2022-08-17T22:04:39.176Z,2.42
2022-08-17T22:07:12.094Z,2.20
2022-08-17T22:09:43.161Z,3.50
2022-08-17T22:12:12.484Z,3.20
2022-08-17T22:14:51.438Z,3.38
2022-08-17T22:17:46.288Z,3.70
2022-08-17T22:20:20.504Z,2.75
2022-08-17T22:23:08.692Z,2.72
2022-08-17T22:25:38.632Z,3.83
2022-08-17T22:28:08.713Z,3.35
2022-08-17T22:30:41.257Z,3.50
2022-08-17T22:33:29.553Z,3.30
2022-08-17T22:36:11.015Z,3.97
2022-08-17T22:38:38.466Z,3.20
2022-08-17T22:41:37.668Z,3.45
2022-08-17T22:44:14.002Z,2.80
2022-08-17T22:46:49.511Z,3.50
2022-08-17T22:49:22.905Z,3.25
2022-08-17T22:51:49.578Z,2.80
2022-08-17T22:54:36.953Z,3.17
2022-08-17T22:57:23.200Z,3.63
2022-08-17T22:59:52.664Z,3.67
2022-08-17T23:02:33.975Z,3.72
2022-08-17T23:05:10.210Z,3.28
2022-08-17T23:07:37.023Z,3.45
2022-08-17T23:10:06.427Z,3.50
2022-08-17T23:12:39.958Z,3.45
2022-08-17T23:15:14.295Z,3.42
2022-08-17T23:17:41.905Z,2.90
2022-08-17T23:20:12.431Z,2.22
2022-08-17T23:22:51.318Z,4.43
2022-08-17T23:25:25.481Z,3.80
2022-08-17T23:27:52.171Z,3.60
2022-08-17T23:30:18.857Z,3.88
2022-08-17T23:32:53.646Z,2.85
2022-08-17T23:35:20.396Z,3.60
2022-08-17T23:38:07.466Z,3.78
2022-08-17T23:40:33.984Z,3.83
2022-08-17T23:43:00.525Z,2.67
2022-08-17T23:45:31.061Z,3.60
2022-08-17T23:47:57.600Z,3.10
2022-08-17T23:50:25.040Z,2.85
2022-08-17T23:52:56.482Z,3.50
2022-08-17T23:55:22.928Z,2.78
2022-08-17T23:57:49.991Z,3.40
